KGLR/GLR METAR and TAF weather

Enter ICAO airport designator
Station Type Date Time Source
KGLR METAR 2019/12/14 16:53 UTC NOAA

KGLR 141653Z AUTO 31005KT 3SM BR OVC005 M01/M02 A2959 RMK AO2 SLP035 T10111022


Station Type Date Time Source
KGLR Decoded METAR 2019/12/14 16:53 UTC NOAA

GAYLORD REGIONAL AIRPORT, MI, United States (KGLR) 45-01N 84-41W 407M
Dec 14, 2019 - 11:53 AM EST / 2019.12.14 1653 UTC
Wind: from the NW (310 degrees) at 6 MPH (5 KT):0
Visibility: 3 mile(s):0
Sky conditions: overcast
Weather: mist
Temperature: 30.0 F (-1.1 C)
Windchill: 23 F (-5 C):1
Dew Point: 28.0 F (-2.2 C)
Relative Humidity: 92%
Pressure (altimeter): 29.59 in. Hg (1002 hPa)
ob: KGLR 141653Z AUTO 31005KT 3SM BR OVC005 M01/M02 A2959 RMK AO2 SLP035 T10111022
cycle: 17

Station Type Date Time Source
KGLR TAF UTC NOAA

Error!

Example: see airport list